Ridgway, Illinois
Current Conditions -  °F | °C
As of 10:15 AM on Wednesday 22 Oct 2014 (Local Time) from KHSB Reporting Station
Clear Clear  
Wind Chill: 53°   Ceiling: Unl
Heat Index: 53°   Visibility: 10mi
Dew Point: 43°   Wind: 8mph
Humidity: 70%   Direction: 100°E
Pressure: 30.34"   Gusts: NA
Location:  37.8°N, 88.26°W
Report Text: KHSB 221515Z AUTO 10007KT 10SM CLR 12/06 A3034 RMK AO2 T01150061
Loading
Personal Weather Stations






























Interactive Weather Map
Tropical Storm Tracking
New forecast layout! Learn more

10-Day Weather Forecast

Advertisements
Track Severe Weather on mobile